sensor_id;sensor_type;location;lat;lon;timestamp;P1;durP1;ratioP1;P2;durP2;ratioP2
40471;SDS011;26174;42.908;23.800;2022-07-23T00:00:32;9.57;;;5.68;;
40471;SDS011;26174;42.908;23.800;2022-07-23T00:03:00;13.18;;;5.65;;
40471;SDS011;26174;42.908;23.800;2022-07-23T00:08:24;10.68;;;6.68;;
40471;SDS011;26174;42.908;23.800;2022-07-23T00:10:53;12.50;;;6.45;;
40471;SDS011;26174;42.908;23.800;2022-07-23T00:13:36;11.85;;;6.57;;
40471;SDS011;26174;42.908;23.800;2022-07-23T00:16:25;9.13;;;6.28;;
40471;SDS011;26174;42.908;23.800;2022-07-23T00:18:52;14.88;;;6.53;;
40471;SDS011;26174;42.908;23.800;2022-07-23T00:21:21;11.82;;;6.72;;
40471;SDS011;26174;42.908;23.800;2022-07-23T00:24:16;14.55;;;6.50;;
40471;SDS011;26174;42.908;23.800;2022-07-23T00:26:42;14.52;;;6.18;;
40471;SDS011;26174;42.908;23.800;2022-07-23T00:29:07;9.23;;;6.13;;
40471;SDS011;26174;42.908;23.800;2022-07-23T00:31:33;13.52;;;6.70;;
40471;SDS011;26174;42.908;23.800;2022-07-23T00:33:58;11.88;;;6.95;;
40471;SDS011;26174;42.908;23.800;2022-07-23T00:36:26;12.65;;;6.78;;
40471;SDS011;26174;42.908;23.800;2022-07-23T00:38:52;14.68;;;6.82;;
40471;SDS011;26174;42.908;23.800;2022-07-23T00:41:18;17.83;;;7.10;;
40471;SDS011;26174;42.908;23.800;2022-07-23T00:43:44;12.52;;;6.50;;
40471;SDS011;26174;42.908;23.800;2022-07-23T00:46:09;9.52;;;6.22;;
40471;SDS011;26174;42.908;23.800;2022-07-23T00:48:35;17.73;;;6.80;;
40471;SDS011;26174;42.908;23.800;2022-07-23T00:51:01;12.07;;;6.32;;
40471;SDS011;26174;42.908;23.800;2022-07-23T00:53:26;11.00;;;6.47;;
40471;SDS011;26174;42.908;23.800;2022-07-23T00:55:53;12.18;;;6.53;;
40471;SDS011;26174;42.908;23.800;2022-07-23T00:58:19;13.48;;;7.03;;
40471;SDS011;26174;42.908;23.800;2022-07-23T01:00:44;12.15;;;6.28;;
40471;SDS011;26174;42.908;23.800;2022-07-23T01:03:10;11.73;;;6.50;;
40471;SDS011;26174;42.908;23.800;2022-07-23T01:05:36;12.15;;;7.00;;
40471;SDS011;26174;42.908;23.800;2022-07-23T01:08:01;10.27;;;6.15;;
40471;SDS011;26174;42.908;23.800;2022-07-23T01:10:30;13.32;;;6.53;;
40471;SDS011;26174;42.908;23.800;2022-07-23T01:12:56;13.20;;;5.90;;
40471;SDS011;26174;42.908;23.800;2022-07-23T01:15:26;8.77;;;6.32;;
40471;SDS011;26174;42.908;23.800;2022-07-23T01:17:52;9.52;;;6.55;;
40471;SDS011;26174;42.908;23.800;2022-07-23T01:20:17;14.55;;;6.95;;
40471;SDS011;26174;42.908;23.800;2022-07-23T01:22:43;10.77;;;6.50;;
40471;SDS011;26174;42.908;23.800;2022-07-23T01:25:09;14.55;;;6.35;;
40471;SDS011;26174;42.908;23.800;2022-07-23T01:27:35;8.82;;;6.57;;
40471;SDS011;26174;42.908;23.800;2022-07-23T01:30:01;8.00;;;6.13;;
40471;SDS011;26174;42.908;23.800;2022-07-23T01:32:28;10.82;;;6.53;;
40471;SDS011;26174;42.908;23.800;2022-07-23T01:34:54;11.65;;;6.35;;
40471;SDS011;26174;42.908;23.800;2022-07-23T01:37:19;12.23;;;6.70;;
40471;SDS011;26174;42.908;23.800;2022-07-23T01:39:45;10.68;;;6.15;;
40471;SDS011;26174;42.908;23.800;2022-07-23T01:42:10;10.55;;;6.45;;
40471;SDS011;26174;42.908;23.800;2022-07-23T01:44:36;9.30;;;5.78;;
40471;SDS011;26174;42.908;23.800;2022-07-23T01:47:02;7.35;;;5.78;;
40471;SDS011;26174;42.908;23.800;2022-07-23T01:49:27;13.82;;;6.85;;
40471;SDS011;26174;42.908;23.800;2022-07-23T01:51:53;16.88;;;6.22;;
40471;SDS011;26174;42.908;23.800;2022-07-23T01:54:25;13.13;;;6.70;;
40471;SDS011;26174;42.908;23.800;2022-07-23T01:56:55;13.25;;;6.35;;
40471;SDS011;26174;42.908;23.800;2022-07-23T01:59:21;19.27;;;7.05;;
40471;SDS011;26174;42.908;23.800;2022-07-23T02:01:47;13.70;;;6.50;;
40471;SDS011;26174;42.908;23.800;2022-07-23T02:04:13;10.88;;;6.80;;
40471;SDS011;26174;42.908;23.800;2022-07-23T02:06:39;10.63;;;6.47;;
40471;SDS011;26174;42.908;23.800;2022-07-23T02:09:04;12.10;;;6.53;;
40471;SDS011;26174;42.908;23.800;2022-07-23T02:11:30;11.15;;;6.70;;
40471;SDS011;26174;42.908;23.800;2022-07-23T02:13:55;16.20;;;6.60;;
40471;SDS011;26174;42.908;23.800;2022-07-23T02:16:21;11.73;;;6.35;;
40471;SDS011;26174;42.908;23.800;2022-07-23T02:18:47;16.08;;;7.50;;
40471;SDS011;26174;42.908;23.800;2022-07-23T02:21:12;11.00;;;7.50;;
40471;SDS011;26174;42.908;23.800;2022-07-23T02:23:38;12.52;;;6.85;;
40471;SDS011;26174;42.908;23.800;2022-07-23T02:26:04;13.05;;;7.15;;
40471;SDS011;26174;42.908;23.800;2022-07-23T02:28:29;12.73;;;7.28;;
40471;SDS011;26174;42.908;23.800;2022-07-23T02:30:55;10.80;;;6.55;;
40471;SDS011;26174;42.908;23.800;2022-07-23T02:33:20;12.23;;;7.20;;
40471;SDS011;26174;42.908;23.800;2022-07-23T02:35:46;11.10;;;7.25;;
40471;SDS011;26174;42.908;23.800;2022-07-23T02:38:12;10.65;;;6.97;;
40471;SDS011;26174;42.908;23.800;2022-07-23T02:40:37;12.18;;;6.80;;
40471;SDS011;26174;42.908;23.800;2022-07-23T02:43:03;9.38;;;6.90;;
40471;SDS011;26174;42.908;23.800;2022-07-23T02:45:28;16.85;;;7.03;;
40471;SDS011;26174;42.908;23.800;2022-07-23T02:47:54;12.13;;;7.03;;
40471;SDS011;26174;42.908;23.800;2022-07-23T02:50:19;13.05;;;6.50;;
40471;SDS011;26174;42.908;23.800;2022-07-23T02:52:45;11.82;;;7.18;;
40471;SDS011;26174;42.908;23.800;2022-07-23T02:55:11;10.13;;;6.72;;
40471;SDS011;26174;42.908;23.800;2022-07-23T02:57:37;12.98;;;6.93;;
40471;SDS011;26174;42.908;23.800;2022-07-23T03:00:03;12.02;;;7.20;;
40471;SDS011;26174;42.908;23.800;2022-07-23T03:02:30;10.55;;;7.15;;
40471;SDS011;26174;42.908;23.800;2022-07-23T03:04:56;10.02;;;7.10;;
40471;SDS011;26174;42.908;23.800;2022-07-23T03:07:21;12.18;;;7.43;;
40471;SDS011;26174;42.908;23.800;2022-07-23T03:09:47;12.27;;;7.53;;
40471;SDS011;26174;42.908;23.800;2022-07-23T03:12:13;17.40;;;8.77;;
40471;SDS011;26174;42.908;23.800;2022-07-23T03:14:38;20.58;;;8.60;;
40471;SDS011;26174;42.908;23.800;2022-07-23T03:17:04;18.70;;;8.80;;
40471;SDS011;26174;42.908;23.800;2022-07-23T03:19:29;17.45;;;8.90;;
40471;SDS011;26174;42.908;23.800;2022-07-23T03:21:55;17.42;;;8.55;;
40471;SDS011;26174;42.908;23.800;2022-07-23T03:24:21;23.17;;;9.43;;
40471;SDS011;26174;42.908;23.800;2022-07-23T03:26:48;16.58;;;8.75;;
40471;SDS011;26174;42.908;23.800;2022-07-23T03:29:14;15.35;;;9.13;;
40471;SDS011;26174;42.908;23.800;2022-07-23T03:31:40;19.00;;;9.30;;
40471;SDS011;26174;42.908;23.800;2022-07-23T03:34:05;28.90;;;9.88;;
40471;SDS011;26174;42.908;23.800;2022-07-23T03:36:31;17.92;;;8.38;;
40471;SDS011;26174;42.908;23.800;2022-07-23T03:38:56;20.48;;;8.45;;
40471;SDS011;26174;42.908;23.800;2022-07-23T03:41:22;22.58;;;8.82;;
40471;SDS011;26174;42.908;23.800;2022-07-23T03:43:48;18.60;;;8.52;;
40471;SDS011;26174;42.908;23.800;2022-07-23T03:46:13;16.92;;;8.40;;
40471;SDS011;26174;42.908;23.800;2022-07-23T03:48:39;17.42;;;8.43;;
40471;SDS011;26174;42.908;23.800;2022-07-23T03:51:04;13.30;;;7.60;;
40471;SDS011;26174;42.908;23.800;2022-07-23T03:53:30;23.42;;;8.25;;
40471;SDS011;26174;42.908;23.800;2022-07-23T03:55:56;21.02;;;8.80;;
40471;SDS011;26174;42.908;23.800;2022-07-23T03:58:22;12.43;;;7.68;;
40471;SDS011;26174;42.908;23.800;2022-07-23T04:00:47;14.15;;;8.57;;
40471;SDS011;26174;42.908;23.800;2022-07-23T04:03:13;19.67;;;8.57;;
40471;SDS011;26174;42.908;23.800;2022-07-23T04:05:38;14.38;;;8.57;;
40471;SDS011;26174;42.908;23.800;2022-07-23T04:08:04;14.25;;;8.68;;
40471;SDS011;26174;42.908;23.800;2022-07-23T04:10:30;12.35;;;8.63;;
40471;SDS011;26174;42.908;23.800;2022-07-23T04:12:55;16.70;;;9.02;;
40471;SDS011;26174;42.908;23.800;2022-07-23T04:15:21;17.58;;;8.15;;
40471;SDS011;26174;42.908;23.800;2022-07-23T04:17:46;17.38;;;7.95;;
40471;SDS011;26174;42.908;23.800;2022-07-23T04:20:12;18.13;;;8.40;;
40471;SDS011;26174;42.908;23.800;2022-07-23T04:22:38;19.70;;;8.93;;
40471;SDS011;26174;42.908;23.800;2022-07-23T04:25:04;19.52;;;8.18;;
40471;SDS011;26174;42.908;23.800;2022-07-23T04:27:30;16.63;;;8.75;;
40471;SDS011;26174;42.908;23.800;2022-07-23T04:29:58;16.48;;;8.93;;
40471;SDS011;26174;42.908;23.800;2022-07-23T04:32:24;18.83;;;9.70;;
40471;SDS011;26174;42.908;23.800;2022-07-23T04:34:49;21.30;;;9.32;;
40471;SDS011;26174;42.908;23.800;2022-07-23T04:37:15;23.67;;;8.80;;
40471;SDS011;26174;42.908;23.800;2022-07-23T04:39:40;18.55;;;8.95;;
40471;SDS011;26174;42.908;23.800;2022-07-23T04:42:06;20.10;;;8.60;;
40471;SDS011;26174;42.908;23.800;2022-07-23T04:44:32;22.10;;;10.30;;
40471;SDS011;26174;42.908;23.800;2022-07-23T04:46:57;36.08;;;11.82;;
40471;SDS011;26174;42.908;23.800;2022-07-23T04:49:23;23.65;;;11.85;;
40471;SDS011;26174;42.908;23.800;2022-07-23T04:51:48;23.85;;;11.57;;
40471;SDS011;26174;42.908;23.800;2022-07-23T04:54:14;25.27;;;13.00;;
40471;SDS011;26174;42.908;23.800;2022-07-23T04:56:40;20.40;;;12.45;;
40471;SDS011;26174;42.908;23.800;2022-07-23T04:59:05;25.35;;;11.93;;
40471;SDS011;26174;42.908;23.800;2022-07-23T05:01:31;26.20;;;11.15;;
40471;SDS011;26174;42.908;23.800;2022-07-23T05:03:56;23.98;;;11.90;;
40471;SDS011;26174;42.908;23.800;2022-07-23T05:06:22;29.02;;;11.65;;
40471;SDS011;26174;42.908;23.800;2022-07-23T05:08:47;20.25;;;11.95;;
40471;SDS011;26174;42.908;23.800;2022-07-23T05:11:13;23.60;;;11.60;;
40471;SDS011;26174;42.908;23.800;2022-07-23T05:13:39;23.00;;;11.27;;
40471;SDS011;26174;42.908;23.800;2022-07-23T05:16:05;26.70;;;11.43;;
40471;SDS011;26174;42.908;23.800;2022-07-23T05:18:31;18.65;;;9.80;;
40471;SDS011;26174;42.908;23.800;2022-07-23T05:20:56;24.48;;;10.82;;
40471;SDS011;26174;42.908;23.800;2022-07-23T05:23:22;33.35;;;11.38;;
40471;SDS011;26174;42.908;23.800;2022-07-23T05:25:47;27.70;;;10.85;;
40471;SDS011;26174;42.908;23.800;2022-07-23T05:28:13;23.83;;;11.05;;
40471;SDS011;26174;42.908;23.800;2022-07-23T05:30:39;21.83;;;10.48;;
40471;SDS011;26174;42.908;23.800;2022-07-23T05:33:04;20.25;;;9.50;;
40471;SDS011;26174;42.908;23.800;2022-07-23T05:35:30;16.65;;;9.45;;
40471;SDS011;26174;42.908;23.800;2022-07-23T05:37:55;23.00;;;9.50;;
40471;SDS011;26174;42.908;23.800;2022-07-23T05:40:21;18.50;;;8.50;;
40471;SDS011;26174;42.908;23.800;2022-07-23T05:42:46;16.55;;;8.60;;
40471;SDS011;26174;42.908;23.800;2022-07-23T05:45:12;20.33;;;9.52;;
40471;SDS011;26174;42.908;23.800;2022-07-23T05:47:41;17.90;;;8.85;;
40471;SDS011;26174;42.908;23.800;2022-07-23T05:50:14;18.02;;;9.07;;
40471;SDS011;26174;42.908;23.800;2022-07-23T05:52:43;30.80;;;8.82;;
40471;SDS011;26174;42.908;23.800;2022-07-23T05:55:09;15.38;;;8.57;;
40471;SDS011;26174;42.908;23.800;2022-07-23T05:57:36;11.80;;;8.30;;
40471;SDS011;26174;42.908;23.800;2022-07-23T06:00:03;18.15;;;8.70;;
40471;SDS011;26174;42.908;23.800;2022-07-23T06:02:29;19.27;;;8.32;;
40471;SDS011;26174;42.908;23.800;2022-07-23T06:04:55;16.10;;;8.25;;
40471;SDS011;26174;42.908;23.800;2022-07-23T06:07:20;21.27;;;8.90;;
40471;SDS011;26174;42.908;23.800;2022-07-23T06:09:46;28.10;;;9.05;;
40471;SDS011;26174;42.908;23.800;2022-07-23T06:12:12;23.00;;;9.00;;
40471;SDS011;26174;42.908;23.800;2022-07-23T06:14:38;13.32;;;8.70;;
40471;SDS011;26174;42.908;23.800;2022-07-23T06:17:03;26.65;;;8.00;;
40471;SDS011;26174;42.908;23.800;2022-07-23T06:19:29;16.55;;;7.90;;
40471;SDS011;26174;42.908;23.800;2022-07-23T06:21:54;15.20;;;8.50;;
40471;SDS011;26174;42.908;23.800;2022-07-23T06:24:20;18.30;;;7.82;;
40471;SDS011;26174;42.908;23.800;2022-07-23T06:26:46;14.13;;;8.20;;
40471;SDS011;26174;42.908;23.800;2022-07-23T06:29:11;20.40;;;7.50;;
40471;SDS011;26174;42.908;23.800;2022-07-23T06:31:37;11.40;;;7.00;;
40471;SDS011;26174;42.908;23.800;2022-07-23T06:34:02;12.07;;;7.35;;
40471;SDS011;26174;42.908;23.800;2022-07-23T06:36:28;15.63;;;7.00;;
40471;SDS011;26174;42.908;23.800;2022-07-23T06:38:54;12.65;;;7.25;;
40471;SDS011;26174;42.908;23.800;2022-07-23T06:41:19;20.17;;;8.57;;
40471;SDS011;26174;42.908;23.800;2022-07-23T06:43:45;16.98;;;9.07;;
40471;SDS011;26174;42.908;23.800;2022-07-23T06:46:10;22.45;;;7.88;;
40471;SDS011;26174;42.908;23.800;2022-07-23T06:48:36;21.58;;;8.77;;
40471;SDS011;26174;42.908;23.800;2022-07-23T06:51:02;13.93;;;8.90;;
40471;SDS011;26174;42.908;23.800;2022-07-23T06:53:28;15.43;;;7.30;;
40471;SDS011;26174;42.908;23.800;2022-07-23T06:55:54;19.38;;;9.10;;
40471;SDS011;26174;42.908;23.800;2022-07-23T06:58:19;19.70;;;9.10;;
40471;SDS011;26174;42.908;23.800;2022-07-23T07:00:45;14.85;;;9.57;;
40471;SDS011;26174;42.908;23.800;2022-07-23T07:03:11;13.45;;;9.23;;
40471;SDS011;26174;42.908;23.800;2022-07-23T07:05:37;18.42;;;9.25;;
40471;SDS011;26174;42.908;23.800;2022-07-23T07:08:04;16.90;;;8.50;;
40471;SDS011;26174;42.908;23.800;2022-07-23T07:10:30;20.40;;;9.05;;
40471;SDS011;26174;42.908;23.800;2022-07-23T07:12:56;14.65;;;8.07;;
40471;SDS011;26174;42.908;23.800;2022-07-23T07:15:21;15.95;;;8.25;;
40471;SDS011;26174;42.908;23.800;2022-07-23T07:17:47;10.52;;;7.10;;
40471;SDS011;26174;42.908;23.800;2022-07-23T07:20:13;15.93;;;7.35;;
40471;SDS011;26174;42.908;23.800;2022-07-23T07:22:39;14.25;;;8.13;;
40471;SDS011;26174;42.908;23.800;2022-07-23T07:25:05;14.98;;;8.25;;
40471;SDS011;26174;42.908;23.800;2022-07-23T07:27:31;10.85;;;7.32;;
40471;SDS011;26174;42.908;23.800;2022-07-23T07:29:57;17.42;;;7.85;;
40471;SDS011;26174;42.908;23.800;2022-07-23T07:32:22;12.27;;;7.60;;
40471;SDS011;26174;42.908;23.800;2022-07-23T07:34:49;16.52;;;7.35;;
40471;SDS011;26174;42.908;23.800;2022-07-23T07:37:14;10.13;;;7.20;;
40471;SDS011;26174;42.908;23.800;2022-07-23T07:39:40;19.33;;;8.25;;
40471;SDS011;26174;42.908;23.800;2022-07-23T07:42:06;13.00;;;7.07;;
40471;SDS011;26174;42.908;23.800;2022-07-23T07:44:31;20.75;;;7.28;;
40471;SDS011;26174;42.908;23.800;2022-07-23T07:46:57;20.60;;;7.63;;
40471;SDS011;26174;42.908;23.800;2022-07-23T07:49:22;17.02;;;6.85;;
40471;SDS011;26174;42.908;23.800;2022-07-23T07:51:49;13.32;;;7.50;;
40471;SDS011;26174;42.908;23.800;2022-07-23T07:54:14;14.75;;;7.22;;
40471;SDS011;26174;42.908;23.800;2022-07-23T07:56:40;10.93;;;6.38;;
40471;SDS011;26174;42.908;23.800;2022-07-23T07:59:06;14.88;;;6.75;;
40471;SDS011;26174;42.908;23.800;2022-07-23T08:01:32;12.27;;;6.40;;
40471;SDS011;26174;42.908;23.800;2022-07-23T08:03:57;10.07;;;6.80;;
40471;SDS011;26174;42.908;23.800;2022-07-23T08:06:23;12.73;;;6.05;;
40471;SDS011;26174;42.908;23.800;2022-07-23T08:08:48;17.48;;;6.25;;
40471;SDS011;26174;42.908;23.800;2022-07-23T08:11:14;11.35;;;7.03;;
40471;SDS011;26174;42.908;23.800;2022-07-23T08:13:40;10.80;;;6.22;;
40471;SDS011;26174;42.908;23.800;2022-07-23T08:16:06;14.25;;;7.15;;
40471;SDS011;26174;42.908;23.800;2022-07-23T08:18:32;17.92;;;7.20;;
40471;SDS011;26174;42.908;23.800;2022-07-23T08:20:57;19.40;;;7.07;;
40471;SDS011;26174;42.908;23.800;2022-07-23T08:23:23;16.08;;;6.93;;
40471;SDS011;26174;42.908;23.800;2022-07-23T08:25:48;14.07;;;7.10;;
40471;SDS011;26174;42.908;23.800;2022-07-23T08:28:14;12.40;;;6.22;;
40471;SDS011;26174;42.908;23.800;2022-07-23T08:30:42;10.00;;;6.38;;
40471;SDS011;26174;42.908;23.800;2022-07-23T08:33:11;12.82;;;6.35;;
40471;SDS011;26174;42.908;23.800;2022-07-23T08:35:41;10.60;;;5.70;;
40471;SDS011;26174;42.908;23.800;2022-07-23T08:40:39;12.10;;;5.90;;
40471;SDS011;26174;42.908;23.800;2022-07-23T08:43:07;15.27;;;6.60;;
40471;SDS011;26174;42.908;23.800;2022-07-23T08:45:41;8.35;;;6.85;;
40471;SDS011;26174;42.908;23.800;2022-07-23T08:48:19;13.10;;;6.05;;
40471;SDS011;26174;42.908;23.800;2022-07-23T08:50:46;10.85;;;6.15;;
40471;SDS011;26174;42.908;23.800;2022-07-23T08:53:13;16.98;;;5.88;;
40471;SDS011;26174;42.908;23.800;2022-07-23T08:55:40;11.85;;;6.45;;
40471;SDS011;26174;42.908;23.800;2022-07-23T08:58:09;11.30;;;5.82;;
40471;SDS011;26174;42.908;23.800;2022-07-23T09:00:34;14.98;;;5.57;;
40471;SDS011;26174;42.908;23.800;2022-07-23T09:03:00;10.98;;;5.65;;
40471;SDS011;26174;42.908;23.800;2022-07-23T09:05:26;22.33;;;5.60;;
40471;SDS011;26174;42.908;23.800;2022-07-23T09:08:03;12.88;;;5.22;;
40471;SDS011;26174;42.908;23.800;2022-07-23T09:13:27;10.90;;;5.03;;
40471;SDS011;26174;42.908;23.800;2022-07-23T09:16:14;20.13;;;5.38;;
40471;SDS011;26174;42.908;23.800;2022-07-23T09:21:18;14.10;;;5.65;;
40471;SDS011;26174;42.908;23.800;2022-07-23T09:23:51;8.75;;;4.60;;
40471;SDS011;26174;42.908;23.800;2022-07-23T09:26:19;9.43;;;4.85;;
40471;SDS011;26174;42.908;23.800;2022-07-23T09:34:26;11.85;;;4.82;;
40471;SDS011;26174;42.908;23.800;2022-07-23T09:36:55;11.98;;;5.07;;
40471;SDS011;26174;42.908;23.800;2022-07-23T09:39:29;9.95;;;4.72;;
40471;SDS011;26174;42.908;23.800;2022-07-23T09:41:56;10.13;;;4.70;;
40471;SDS011;26174;42.908;23.800;2022-07-23T09:44:22;11.82;;;5.15;;
40471;SDS011;26174;42.908;23.800;2022-07-23T09:46:49;8.85;;;4.82;;
40471;SDS011;26174;42.908;23.800;2022-07-23T09:49:22;7.35;;;5.13;;
40471;SDS011;26174;42.908;23.800;2022-07-23T09:51:53;8.43;;;5.18;;
40471;SDS011;26174;42.908;23.800;2022-07-23T09:54:24;9.13;;;4.90;;
40471;SDS011;26174;42.908;23.800;2022-07-23T09:57:00;12.40;;;4.88;;
40471;SDS011;26174;42.908;23.800;2022-07-23T09:59:41;11.45;;;4.93;;
40471;SDS011;26174;42.908;23.800;2022-07-23T10:02:09;15.85;;;5.05;;
40471;SDS011;26174;42.908;23.800;2022-07-23T10:04:37;10.40;;;5.03;;
40471;SDS011;26174;42.908;23.800;2022-07-23T10:07:04;12.52;;;5.28;;
40471;SDS011;26174;42.908;23.800;2022-07-23T10:09:31;14.40;;;5.15;;
40471;SDS011;26174;42.908;23.800;2022-07-23T10:11:59;8.38;;;4.70;;
40471;SDS011;26174;42.908;23.800;2022-07-23T10:14:31;14.98;;;5.20;;
40471;SDS011;26174;42.908;23.800;2022-07-23T10:17:00;17.55;;;5.38;;
40471;SDS011;26174;42.908;23.800;2022-07-23T10:19:27;14.95;;;5.88;;
40471;SDS011;26174;42.908;23.800;2022-07-23T10:21:54;8.40;;;4.93;;
40471;SDS011;26174;42.908;23.800;2022-07-23T10:24:26;10.88;;;4.80;;
40471;SDS011;26174;42.908;23.800;2022-07-23T10:38:34;13.98;;;4.55;;
40471;SDS011;26174;42.908;23.800;2022-07-23T10:41:05;13.57;;;5.30;;
40471;SDS011;26174;42.908;23.800;2022-07-23T10:43:31;8.93;;;4.80;;
40471;SDS011;26174;42.908;23.800;2022-07-23T10:46:20;13.82;;;5.28;;
40471;SDS011;26174;42.908;23.800;2022-07-23T10:49:40;10.13;;;5.03;;
40471;SDS011;26174;42.908;23.800;2022-07-23T10:55:41;9.75;;;5.00;;
40471;SDS011;26174;42.908;23.800;2022-07-23T10:57:48;14.75;;;5.32;;
40471;SDS011;26174;42.908;23.800;2022-07-23T11:00:21;13.32;;;4.80;;
40471;SDS011;26174;42.908;23.800;2022-07-23T11:02:49;14.95;;;5.00;;
40471;SDS011;26174;42.908;23.800;2022-07-23T11:05:17;8.23;;;5.07;;
40471;SDS011;26174;42.908;23.800;2022-07-23T11:10:48;10.38;;;4.72;;
40471;SDS011;26174;42.908;23.800;2022-07-23T11:19:03;12.27;;;4.82;;
40471;SDS011;26174;42.908;23.800;2022-07-23T11:24:00;11.85;;;5.05;;
40471;SDS011;26174;42.908;23.800;2022-07-23T11:31:55;13.68;;;4.97;;
40471;SDS011;26174;42.908;23.800;2022-07-23T11:34:29;17.02;;;4.85;;
40471;SDS011;26174;42.908;23.800;2022-07-23T11:37:06;9.18;;;5.25;;
40471;SDS011;26174;42.908;23.800;2022-07-23T11:39:33;11.70;;;4.85;;
40471;SDS011;26174;42.908;23.800;2022-07-23T11:42:00;10.10;;;4.95;;
40471;SDS011;26174;42.908;23.800;2022-07-23T11:44:30;15.13;;;7.20;;
40471;SDS011;26174;42.908;23.800;2022-07-23T11:47:01;23.00;;;5.22;;
40471;SDS011;26174;42.908;23.800;2022-07-23T11:49:30;21.05;;;5.18;;
40471;SDS011;26174;42.908;23.800;2022-07-23T11:52:13;16.95;;;5.20;;
40471;SDS011;26174;42.908;23.800;2022-07-23T11:57:36;10.80;;;5.38;;
40471;SDS011;26174;42.908;23.800;2022-07-23T12:02:28;19.95;;;5.78;;
40471;SDS011;26174;42.908;23.800;2022-07-23T12:04:54;19.13;;;5.88;;
40471;SDS011;26174;42.908;23.800;2022-07-23T12:07:33;12.63;;;6.45;;
40471;SDS011;26174;42.908;23.800;2022-07-23T12:10:00;23.65;;;5.45;;
40471;SDS011;26174;42.908;23.800;2022-07-23T12:12:39;16.50;;;5.05;;
40471;SDS011;26174;42.908;23.800;2022-07-23T12:15:10;13.13;;;5.72;;
40471;SDS011;26174;42.908;23.800;2022-07-23T12:17:38;17.50;;;5.47;;
40471;SDS011;26174;42.908;23.800;2022-07-23T12:20:05;14.20;;;5.18;;
40471;SDS011;26174;42.908;23.800;2022-07-23T12:22:43;14.15;;;5.00;;
40471;SDS011;26174;42.908;23.800;2022-07-23T12:25:11;13.85;;;5.35;;
40471;SDS011;26174;42.908;23.800;2022-07-23T12:27:38;12.95;;;5.32;;
40471;SDS011;26174;42.908;23.800;2022-07-23T12:32:50;12.75;;;6.00;;
40471;SDS011;26174;42.908;23.800;2022-07-23T12:35:17;9.85;;;4.68;;
40471;SDS011;26174;42.908;23.800;2022-07-23T12:37:44;15.18;;;5.57;;
40471;SDS011;26174;42.908;23.800;2022-07-23T12:43:07;9.32;;;4.80;;
40471;SDS011;26174;42.908;23.800;2022-07-23T12:45:44;13.02;;;5.28;;
40471;SDS011;26174;42.908;23.800;2022-07-23T12:48:31;13.55;;;5.35;;
40471;SDS011;26174;42.908;23.800;2022-07-23T12:53:38;14.40;;;4.80;;
40471;SDS011;26174;42.908;23.800;2022-07-23T12:56:07;13.52;;;5.07;;
40471;SDS011;26174;42.908;23.800;2022-07-23T13:06:36;12.13;;;5.45;;
40471;SDS011;26174;42.908;23.800;2022-07-23T13:09:15;18.85;;;5.47;;
40471;SDS011;26174;42.908;23.800;2022-07-23T13:11:45;15.30;;;5.15;;
40471;SDS011;26174;42.908;23.800;2022-07-23T13:14:12;9.63;;;4.43;;
40471;SDS011;26174;42.908;23.800;2022-07-23T13:16:39;13.30;;;4.85;;
40471;SDS011;26174;42.908;23.800;2022-07-23T13:19:06;15.50;;;5.20;;
40471;SDS011;26174;42.908;23.800;2022-07-23T13:21:32;14.90;;;5.50;;
40471;SDS011;26174;42.908;23.800;2022-07-23T13:23:58;8.95;;;5.75;;
40471;SDS011;26174;42.908;23.800;2022-07-23T13:26:23;14.10;;;5.82;;
40471;SDS011;26174;42.908;23.800;2022-07-23T13:28:49;15.85;;;5.47;;
40471;SDS011;26174;42.908;23.800;2022-07-23T13:31:15;11.00;;;5.25;;
40471;SDS011;26174;42.908;23.800;2022-07-23T13:33:41;9.57;;;5.10;;
40471;SDS011;26174;42.908;23.800;2022-07-23T13:36:07;16.35;;;5.78;;
40471;SDS011;26174;42.908;23.800;2022-07-23T13:38:33;14.50;;;5.53;;
40471;SDS011;26174;42.908;23.800;2022-07-23T13:40:59;18.35;;;5.75;;
40471;SDS011;26174;42.908;23.800;2022-07-23T13:43:24;15.85;;;5.82;;
40471;SDS011;26174;42.908;23.800;2022-07-23T13:45:51;13.35;;;5.65;;
40471;SDS011;26174;42.908;23.800;2022-07-23T13:48:17;12.95;;;7.13;;
40471;SDS011;26174;42.908;23.800;2022-07-23T13:50:43;14.45;;;5.47;;
40471;SDS011;26174;42.908;23.800;2022-07-23T13:53:10;15.43;;;5.72;;
40471;SDS011;26174;42.908;23.800;2022-07-23T13:55:38;14.73;;;5.10;;
40471;SDS011;26174;42.908;23.800;2022-07-23T13:58:04;16.10;;;5.97;;
40471;SDS011;26174;42.908;23.800;2022-07-23T14:00:31;15.40;;;5.80;;
40471;SDS011;26174;42.908;23.800;2022-07-23T14:02:58;16.08;;;5.63;;
40471;SDS011;26174;42.908;23.800;2022-07-23T14:05:24;11.13;;;6.03;;
40471;SDS011;26174;42.908;23.800;2022-07-23T14:07:50;12.57;;;6.30;;
40471;SDS011;26174;42.908;23.800;2022-07-23T14:10:17;10.43;;;5.22;;
40471;SDS011;26174;42.908;23.800;2022-07-23T14:12:44;12.43;;;5.30;;
40471;SDS011;26174;42.908;23.800;2022-07-23T14:15:10;11.73;;;4.70;;
40471;SDS011;26174;42.908;23.800;2022-07-23T14:17:36;11.02;;;5.35;;
40471;SDS011;26174;42.908;23.800;2022-07-23T14:20:03;15.27;;;5.15;;
40471;SDS011;26174;42.908;23.800;2022-07-23T14:22:29;21.52;;;6.20;;
40471;SDS011;26174;42.908;23.800;2022-07-23T14:24:55;13.73;;;5.55;;
40471;SDS011;26174;42.908;23.800;2022-07-23T14:27:25;13.85;;;5.10;;
40471;SDS011;26174;42.908;23.800;2022-07-23T14:29:58;16.50;;;5.35;;
40471;SDS011;26174;42.908;23.800;2022-07-23T14:32:25;16.70;;;5.70;;
40471;SDS011;26174;42.908;23.800;2022-07-23T14:34:52;11.95;;;5.50;;
40471;SDS011;26174;42.908;23.800;2022-07-23T14:37:18;13.73;;;5.55;;
40471;SDS011;26174;42.908;23.800;2022-07-23T14:39:44;10.40;;;5.22;;
40471;SDS011;26174;42.908;23.800;2022-07-23T14:42:10;19.48;;;5.90;;
40471;SDS011;26174;42.908;23.800;2022-07-23T14:44:37;14.20;;;5.28;;
40471;SDS011;26174;42.908;23.800;2022-07-23T14:47:03;16.30;;;5.68;;
40471;SDS011;26174;42.908;23.800;2022-07-23T14:49:30;15.48;;;5.20;;
40471;SDS011;26174;42.908;23.800;2022-07-23T14:51:56;8.52;;;4.95;;
40471;SDS011;26174;42.908;23.800;2022-07-23T14:54:22;11.63;;;5.65;;
40471;SDS011;26174;42.908;23.800;2022-07-23T14:56:50;11.73;;;5.22;;
40471;SDS011;26174;42.908;23.800;2022-07-23T14:59:16;8.77;;;5.43;;
40471;SDS011;26174;42.908;23.800;2022-07-23T15:01:42;13.98;;;5.82;;
40471;SDS011;26174;42.908;23.800;2022-07-23T15:04:07;17.02;;;5.35;;
40471;SDS011;26174;42.908;23.800;2022-07-23T15:06:33;13.98;;;5.68;;
40471;SDS011;26174;42.908;23.800;2022-07-23T15:08:58;11.90;;;5.60;;
40471;SDS011;26174;42.908;23.800;2022-07-23T15:11:25;15.90;;;5.78;;
40471;SDS011;26174;42.908;23.800;2022-07-23T15:13:52;17.88;;;5.53;;
40471;SDS011;26174;42.908;23.800;2022-07-23T15:16:18;17.40;;;5.57;;
40471;SDS011;26174;42.908;23.800;2022-07-23T15:18:43;14.77;;;6.03;;
40471;SDS011;26174;42.908;23.800;2022-07-23T15:21:09;12.38;;;5.72;;
40471;SDS011;26174;42.908;23.800;2022-07-23T15:23:35;12.23;;;5.25;;
40471;SDS011;26174;42.908;23.800;2022-07-23T15:26:03;14.85;;;5.82;;
40471;SDS011;26174;42.908;23.800;2022-07-23T15:28:28;11.82;;;4.90;;
40471;SDS011;26174;42.908;23.800;2022-07-23T15:30:54;10.38;;;6.38;;